createdAt,value
2018-02-11T00:01:22.477Z,3.50
2018-02-11T00:03:48.555Z,3.40
2018-02-11T00:06:14.654Z,3.40
2018-02-11T00:08:41.485Z,3.40
2018-02-11T00:11:08.013Z,3.50
2018-02-11T00:13:34.090Z,3.60
2018-02-11T00:16:00.185Z,3.60
2018-02-11T00:18:27.025Z,3.50
2018-02-11T00:20:53.692Z,3.50
2018-02-11T00:23:19.765Z,3.40
2018-02-11T00:25:45.846Z,3.40
2018-02-11T00:28:11.947Z,3.40
2018-02-11T00:30:38.029Z,3.30
2018-02-11T00:33:04.127Z,3.30
2018-02-11T00:35:30.226Z,3.30
2018-02-11T00:38:03.081Z,3.30
2018-02-11T00:40:29.153Z,3.30
2018-02-11T00:42:55.305Z,3.30
2018-02-11T00:45:21.381Z,3.20
2018-02-11T00:47:48.219Z,3.30
2018-02-11T00:50:15.046Z,3.30
2018-02-11T00:52:41.137Z,3.40
2018-02-11T00:55:07.220Z,3.30
2018-02-11T00:57:33.545Z,3.30
2018-02-11T01:00:00.382Z,3.30
2018-02-11T01:02:26.462Z,3.30
2018-02-11T01:04:52.541Z,3.30
2018-02-11T01:07:19.377Z,3.20
2018-02-11T01:09:45.481Z,3.10
2018-02-11T01:12:11.553Z,3.20
2018-02-11T01:14:37.643Z,3.20
2018-02-11T01:17:03.742Z,3.20
2018-02-11T01:19:29.838Z,3.10
2018-02-11T01:21:55.929Z,3.10
2018-02-11T01:24:22.045Z,3.10
2018-02-11T01:26:48.127Z,3.10
2018-02-11T01:29:14.210Z,3.00
2018-02-11T01:31:40.337Z,2.90
2018-02-11T01:34:06.430Z,2.90
2018-02-11T01:36:32.506Z,2.80
2018-02-11T01:38:58.594Z,2.80
2018-02-11T01:41:25.413Z,2.70
2018-02-11T01:43:51.516Z,2.70
2018-02-11T01:46:18.152Z,2.70
2018-02-11T01:48:44.230Z,2.60
2018-02-11T01:51:10.313Z,2.60
2018-02-11T01:53:36.381Z,2.60
2018-02-11T01:56:02.713Z,2.70
2018-02-11T01:58:28.773Z,2.60
2018-02-11T02:00:54.897Z,2.70
2018-02-11T02:03:20.977Z,2.70
2018-02-11T02:05:47.063Z,2.60
2018-02-11T02:08:13.786Z,2.70
2018-02-11T02:10:39.870Z,2.70
2018-02-11T02:13:07.452Z,2.80
2018-02-11T02:15:33.538Z,2.80
2018-02-11T02:17:59.617Z,2.80
2018-02-11T02:20:25.709Z,2.70
2018-02-11T02:22:51.805Z,2.80
2018-02-11T02:25:18.286Z,2.90
2018-02-11T02:27:44.356Z,2.90
2018-02-11T02:30:10.467Z,2.90
2018-02-11T02:32:36.566Z,3.00
2018-02-11T02:35:03.394Z,3.00
2018-02-11T02:37:29.483Z,3.10
2018-02-11T02:39:55.567Z,3.00
2018-02-11T02:42:21.638Z,2.90
2018-02-11T02:44:47.726Z,3.00
2018-02-11T02:47:13.810Z,3.00
2018-02-11T02:49:39.896Z,3.00
2018-02-11T02:52:05.990Z,3.00
2018-02-11T02:54:32.311Z,2.90
2018-02-11T02:56:58.401Z,2.70
2018-02-11T02:59:24.493Z,2.70
2018-02-11T03:01:50.581Z,2.70
2018-02-11T03:04:16.721Z,2.70
2018-02-11T03:06:42.833Z,2.80
2018-02-11T03:09:09.651Z,2.80
2018-02-11T03:11:35.720Z,2.80
2018-02-11T03:14:01.805Z,2.80
2018-02-11T03:16:27.874Z,2.80
2018-02-11T03:18:53.958Z,2.80
2018-02-11T03:21:20.513Z,2.80
2018-02-11T03:23:46.601Z,2.90
2018-02-11T03:26:12.689Z,2.90
2018-02-11T03:28:38.757Z,3.00
2018-02-11T03:31:04.894Z,3.00
2018-02-11T03:33:30.978Z,3.00
2018-02-11T03:35:57.074Z,3.00
2018-02-11T03:38:23.171Z,3.00
2018-02-11T03:40:49.254Z,3.10
2018-02-11T03:43:15.337Z,3.00
2018-02-11T03:45:41.427Z,3.00
2018-02-11T03:48:07.501Z,3.00
2018-02-11T03:50:34.330Z,3.00
2018-02-11T03:53:00.401Z,3.00
2018-02-11T03:55:26.793Z,3.00
2018-02-11T03:57:53.600Z,3.10
2018-02-11T04:00:20.117Z,3.00
2018-02-11T04:02:46.189Z,3.00
2018-02-11T04:05:12.266Z,3.00
2018-02-11T04:07:38.346Z,3.00
2018-02-11T04:10:04.421Z,3.00
2018-02-11T04:12:30.500Z,3.00
2018-02-11T04:14:57.308Z,3.10
2018-02-11T04:17:23.387Z,3.00
2018-02-11T04:19:49.470Z,3.00
2018-02-11T04:22:15.558Z,3.00
2018-02-11T04:24:41.644Z,3.10
2018-02-11T04:27:08.537Z,3.20
2018-02-11T04:29:34.610Z,3.20
2018-02-11T04:32:00.679Z,3.10
2018-02-11T04:34:27.022Z,3.10
2018-02-11T04:36:53.106Z,3.10
2018-02-11T04:39:19.185Z,3.20
2018-02-11T04:41:45.279Z,3.10
2018-02-11T04:44:11.363Z,3.00
2018-02-11T04:46:38.186Z,3.00
2018-02-11T04:49:04.258Z,3.10
2018-02-11T04:51:30.337Z,3.10
2018-02-11T04:53:56.998Z,3.10
2018-02-11T04:56:23.081Z,3.20
2018-02-11T04:58:49.207Z,3.20
2018-02-11T05:01:15.309Z,3.10
2018-02-11T05:03:41.393Z,3.10
2018-02-11T05:06:07.473Z,3.10
2018-02-11T05:08:33.550Z,3.10
2018-02-11T05:11:00.447Z,3.10
2018-02-11T05:13:26.585Z,3.20
2018-02-11T05:15:52.661Z,3.20
2018-02-11T05:18:18.749Z,3.20
2018-02-11T05:20:44.825Z,3.30
2018-02-11T05:23:10.921Z,3.30
2018-02-11T05:25:37.007Z,3.30
2018-02-11T05:28:03.094Z,3.30
2018-02-11T05:30:29.182Z,3.30
2018-02-11T05:32:56.019Z,3.20
2018-02-11T05:35:22.106Z,3.20
2018-02-11T05:37:48.177Z,3.10
2018-02-11T05:40:15.005Z,3.10
2018-02-11T05:42:41.081Z,3.20
2018-02-11T05:45:07.165Z,3.20
2018-02-11T05:47:33.252Z,3.20
2018-02-11T05:49:59.325Z,3.20
2018-02-11T05:52:26.153Z,3.20
2018-02-11T05:54:52.229Z,3.10
2018-02-11T05:57:18.313Z,3.10
2018-02-11T05:59:45.149Z,3.10
2018-02-11T06:02:11.237Z,3.10
2018-02-11T06:04:37.314Z,3.10
2018-02-11T06:07:03.397Z,3.10
2018-02-11T06:09:29.470Z,3.30
2018-02-11T06:11:56.281Z,3.30
2018-02-11T06:14:22.380Z,3.20
2018-02-11T06:16:48.863Z,3.20
2018-02-11T06:19:14.939Z,3.20
2018-02-11T06:21:41.018Z,3.20
2018-02-11T06:24:07.846Z,3.20
2018-02-11T06:26:43.913Z,3.20
2018-02-11T06:29:10.737Z,3.20
2018-02-11T06:31:36.813Z,3.20
2018-02-11T06:34:02.877Z,3.20
2018-02-11T06:36:28.970Z,3.20
2018-02-11T06:38:55.109Z,3.20
2018-02-11T06:41:21.202Z,3.00
2018-02-11T06:43:47.293Z,3.00
2018-02-11T06:46:13.373Z,3.00
2018-02-11T06:48:39.444Z,3.00
2018-02-11T06:51:06.257Z,3.10
2018-02-11T06:53:32.337Z,3.10
2018-02-11T06:55:58.417Z,3.10
2018-02-11T06:58:24.498Z,3.10
2018-02-11T07:00:50.585Z,3.10
2018-02-11T07:03:16.669Z,3.00
2018-02-11T07:05:42.737Z,3.00
2018-02-11T07:08:08.848Z,3.00
2018-02-11T07:10:34.969Z,3.00
2018-02-11T07:13:01.046Z,3.00
2018-02-11T07:15:27.146Z,3.00
2018-02-11T07:17:53.962Z,3.00
2018-02-11T07:20:20.061Z,3.00
2018-02-11T07:22:46.149Z,3.00
2018-02-11T07:25:12.235Z,3.00
2018-02-11T07:27:38.329Z,3.00
2018-02-11T07:30:04.405Z,3.10
2018-02-11T07:32:30.570Z,3.10
2018-02-11T07:34:56.696Z,3.00
2018-02-11T07:37:22.862Z,2.90
2018-02-11T07:39:48.950Z,2.90
2018-02-11T07:42:15.014Z,2.90
2018-02-11T07:44:41.095Z,2.90
2018-02-11T07:47:07.180Z,2.90
2018-02-11T07:49:33.254Z,2.80
2018-02-11T07:51:59.325Z,2.80
2018-02-11T07:54:25.806Z,2.80
2018-02-11T07:56:51.911Z,2.80
2018-02-11T07:59:18.750Z,2.90
2018-02-11T08:01:45.573Z,2.90
2018-02-11T08:04:11.646Z,3.00
2018-02-11T08:06:37.812Z,2.90
2018-02-11T08:09:03.889Z,3.00
2018-02-11T08:11:29.966Z,3.10
2018-02-11T08:13:56.054Z,3.10
2018-02-11T08:16:22.169Z,3.00
2018-02-11T08:18:48.243Z,3.10
2018-02-11T08:21:14.335Z,3.00
2018-02-11T08:23:40.437Z,3.10
2018-02-11T08:26:06.511Z,3.10
2018-02-11T08:28:32.601Z,3.20
2018-02-11T08:30:58.680Z,3.10
2018-02-11T08:33:24.758Z,3.20
2018-02-11T08:35:50.821Z,3.20
2018-02-11T08:38:16.913Z,3.20
2018-02-11T08:40:42.983Z,3.20
2018-02-11T08:43:09.066Z,3.30
2018-02-11T08:45:35.159Z,3.30
2018-02-11T08:48:01.262Z,3.20
2018-02-11T08:50:27.652Z,3.40
2018-02-11T08:52:53.778Z,3.40
2018-02-11T08:55:19.925Z,3.40
2018-02-11T08:57:46.058Z,3.40
2018-02-11T09:00:12.138Z,3.40
2018-02-11T09:02:38.221Z,3.40
2018-02-11T09:05:04.309Z,3.60
2018-02-11T09:07:30.445Z,3.80
2018-02-11T09:09:56.621Z,3.80
2018-02-11T09:12:23.438Z,3.80
2018-02-11T09:14:49.509Z,4.00
2018-02-11T09:17:15.963Z,4.00
2018-02-11T09:19:42.040Z,4.00
2018-02-11T09:22:08.138Z,3.90
2018-02-11T09:24:34.214Z,4.00
2018-02-11T09:27:00.348Z,3.90
2018-02-11T09:29:26.433Z,3.90
2018-02-11T09:31:52.511Z,3.90
2018-02-11T09:34:18.586Z,3.90
2018-02-11T09:36:44.673Z,3.90
2018-02-11T09:39:10.741Z,3.90
2018-02-11T09:41:36.813Z,3.90
2018-02-11T09:44:02.881Z,3.90
2018-02-11T09:46:28.954Z,3.90
2018-02-11T09:48:55.037Z,3.80
2018-02-11T09:51:21.861Z,3.70
2018-02-11T09:53:47.966Z,3.60
2018-02-11T09:56:14.537Z,3.60
2018-02-11T09:58:40.703Z,3.70
2018-02-11T10:01:07.478Z,3.60
2018-02-11T10:03:33.563Z,3.70
2018-02-11T10:05:59.629Z,3.80
2018-02-11T10:08:25.701Z,3.80
2018-02-11T10:10:52.285Z,3.80
2018-02-11T10:13:18.802Z,3.90
2018-02-11T10:15:46.653Z,3.90
2018-02-11T10:18:14.975Z,4.00
2018-02-11T10:20:41.034Z,4.00
2018-02-11T10:23:08.756Z,3.90
2018-02-11T10:25:35.854Z,4.10
2018-02-11T10:28:03.196Z,4.20
2018-02-11T10:30:30.045Z,4.20
2018-02-11T10:32:56.117Z,4.20
2018-02-11T10:35:25.431Z,4.30
2018-02-11T10:37:51.806Z,4.20
2018-02-11T10:40:18.630Z,4.30
2018-02-11T10:42:44.701Z,4.20
2018-02-11T10:45:10.773Z,4.30
2018-02-11T10:47:36.852Z,4.40
2018-02-11T10:50:02.994Z,4.50
2018-02-11T10:52:29.069Z,4.60
2018-02-11T10:54:55.173Z,4.70
2018-02-11T10:57:21.258Z,4.90
2018-02-11T10:59:47.330Z,4.80
2018-02-11T11:02:13.414Z,5.00
2018-02-11T11:04:40.393Z,5.10
2018-02-11T11:07:06.506Z,5.00
2018-02-11T11:09:32.588Z,4.90
2018-02-11T11:11:58.673Z,4.90
2018-02-11T11:14:24.770Z,5.00
2018-02-11T11:16:50.852Z,4.90
2018-02-11T11:19:16.921Z,4.90
2018-02-11T11:21:43.115Z,4.90
2018-02-11T11:24:09.186Z,4.80
2018-02-11T11:26:35.277Z,4.90
2018-02-11T11:29:04.545Z,5.00
2018-02-11T11:31:30.660Z,5.10
2018-02-11T11:33:56.777Z,5.30
2018-02-11T11:36:23.625Z,5.60
2018-02-11T11:38:49.690Z,5.60
2018-02-11T11:41:15.768Z,5.60
2018-02-11T11:43:41.879Z,5.80
2018-02-11T11:46:07.946Z,5.90
2018-02-11T11:48:34.778Z,6.00
2018-02-11T11:51:01.626Z,6.00
2018-02-11T11:53:27.673Z,5.90
2018-02-11T11:55:53.737Z,6.20
2018-02-11T11:58:19.809Z,6.40
2018-02-11T12:00:45.901Z,6.50
2018-02-11T12:03:11.969Z,6.70
2018-02-11T12:05:38.065Z,6.80
2018-02-11T12:08:04.893Z,6.80
2018-02-11T12:10:30.960Z,6.70
2018-02-11T12:12:57.039Z,6.70
2018-02-11T12:15:23.139Z,6.60
2018-02-11T12:17:49.258Z,6.50
2018-02-11T12:20:15.376Z,6.30
2018-02-11T12:22:41.461Z,6.20
2018-02-11T12:25:08.290Z,6.20
2018-02-11T12:27:34.355Z,6.10
2018-02-11T12:30:00.478Z,6.20
2018-02-11T12:32:26.554Z,6.20
2018-02-11T12:34:52.701Z,6.40
2018-02-11T12:37:19.545Z,6.40
2018-02-11T12:39:45.657Z,6.30
2018-02-11T12:42:11.742Z,6.10
2018-02-11T12:44:37.822Z,6.00
2018-02-11T12:47:03.933Z,6.00
2018-02-11T12:49:30.011Z,6.00
2018-02-11T12:51:56.077Z,6.00
2018-02-11T12:54:22.898Z,6.20
2018-02-11T12:56:48.962Z,6.30
2018-02-11T12:59:15.773Z,6.50
2018-02-11T13:01:41.869Z,6.60
2018-02-11T13:04:07.937Z,6.70
2018-02-11T13:06:34.022Z,6.80
2018-02-11T13:09:00.097Z,6.90
2018-02-11T13:11:26.189Z,7.00
2018-02-11T13:13:52.292Z,7.20
2018-02-11T13:16:18.386Z,7.40
2018-02-11T13:18:45.222Z,7.40
2018-02-11T13:21:12.062Z,7.40
2018-02-11T13:23:38.133Z,7.20
2018-02-11T13:26:04.207Z,7.20
2018-02-11T13:28:30.277Z,7.30
2018-02-11T13:30:56.393Z,7.30
2018-02-11T13:33:22.453Z,7.40
2018-02-11T13:35:48.522Z,7.10
2018-02-11T13:38:14.590Z,7.00
2018-02-11T13:40:40.679Z,7.00
2018-02-11T13:43:06.782Z,7.20
2018-02-11T13:45:32.853Z,7.30
2018-02-11T13:47:58.943Z,7.30
2018-02-11T13:50:25.041Z,7.20
2018-02-11T13:52:51.134Z,7.20
2018-02-11T13:55:17.206Z,7.30
2018-02-11T13:57:43.346Z,7.30
2018-02-11T14:00:10.160Z,7.20
2018-02-11T14:02:36.471Z,7.10
2018-02-11T14:05:02.599Z,7.10
2018-02-11T14:07:28.671Z,7.20
2018-02-11T14:09:55.496Z,7.20
2018-02-11T14:12:21.566Z,7.30
2018-02-11T14:14:47.644Z,7.30
2018-02-11T14:17:13.745Z,7.40
2018-02-11T14:19:40.213Z,7.60
2018-02-11T14:22:06.274Z,7.60
2018-02-11T14:24:32.365Z,7.50
2018-02-11T14:26:59.182Z,7.40
2018-02-11T14:29:25.279Z,7.40
2018-02-11T14:31:51.415Z,7.30
2018-02-11T14:34:17.486Z,7.30
2018-02-11T14:36:43.726Z,7.40
2018-02-11T14:39:10.542Z,7.30
2018-02-11T14:41:36.616Z,7.20
2018-02-11T14:44:02.698Z,7.10
2018-02-11T14:46:28.825Z,7.00
2018-02-11T14:48:54.930Z,6.90
2018-02-11T14:51:20.997Z,7.00
2018-02-11T14:53:47.076Z,7.00
2018-02-11T14:56:13.149Z,7.00
2018-02-11T14:58:39.226Z,7.00
2018-02-11T15:01:05.323Z,7.00
2018-02-11T15:03:31.402Z,7.00
2018-02-11T15:05:57.475Z,7.00
2018-02-11T15:08:23.533Z,7.00
2018-02-11T15:10:49.606Z,7.10
2018-02-11T15:13:15.701Z,7.10
2018-02-11T15:15:42.505Z,7.10
2018-02-11T15:18:08.575Z,7.10
2018-02-11T15:20:35.385Z,7.00
2018-02-11T15:23:01.469Z,6.90
2018-02-11T15:25:27.534Z,6.80
2018-02-11T15:27:53.650Z,6.70
2018-02-11T15:30:19.745Z,6.60
2018-02-11T15:32:45.937Z,6.50
2018-02-11T15:35:12.086Z,6.60
2018-02-11T15:37:38.331Z,6.50
2018-02-11T15:40:04.398Z,6.60
2018-02-11T15:42:30.530Z,6.60
2018-02-11T15:44:57.518Z,6.60
2018-02-11T15:47:23.589Z,6.60
2018-02-11T15:49:49.670Z,6.40
2018-02-11T15:52:16.083Z,6.40
2018-02-11T15:54:42.959Z,6.30
2018-02-11T15:57:09.050Z,6.30
2018-02-11T15:59:35.865Z,6.30
2018-02-11T16:02:01.950Z,6.40
2018-02-11T16:04:28.020Z,6.40
2018-02-11T16:06:54.105Z,6.50
2018-02-11T16:09:20.177Z,6.40
2018-02-11T16:11:47.726Z,6.20
2018-02-11T16:14:13.797Z,6.00
2018-02-11T16:16:39.873Z,5.80
2018-02-11T16:19:05.961Z,5.80
2018-02-11T16:21:32.045Z,5.70
2018-02-11T16:23:58.145Z,5.60
2018-02-11T16:26:24.210Z,5.40
2018-02-11T16:28:50.319Z,5.30
2018-02-11T16:31:16.392Z,5.30
2018-02-11T16:33:42.689Z,5.20
2018-02-11T16:36:08.764Z,5.10
2018-02-11T16:38:34.833Z,5.10
2018-02-11T16:41:01.678Z,5.00
2018-02-11T16:43:28.306Z,5.00
2018-02-11T16:45:54.381Z,4.90
2018-02-11T16:48:20.481Z,4.90
2018-02-11T16:50:46.553Z,4.90
2018-02-11T16:53:12.625Z,4.90
2018-02-11T16:55:39.448Z,4.90
2018-02-11T16:58:05.519Z,4.90
2018-02-11T17:00:31.586Z,4.90
2018-02-11T17:02:57.675Z,4.90
2018-02-11T17:05:23.758Z,4.90
2018-02-11T17:07:51.007Z,4.90
2018-02-11T17:10:17.830Z,4.80
2018-02-11T17:12:43.893Z,4.80
2018-02-11T17:15:09.966Z,4.80
2018-02-11T17:17:36.051Z,4.80
2018-02-11T17:20:02.141Z,4.80
2018-02-11T17:22:28.967Z,4.70
2018-02-11T17:24:55.043Z,4.60
2018-02-11T17:27:21.123Z,4.50
2018-02-11T17:29:47.841Z,4.50
2018-02-11T17:32:13.913Z,4.50
2018-02-11T17:34:40.732Z,4.40
2018-02-11T17:37:06.817Z,4.40
2018-02-11T17:39:32.915Z,4.50
2018-02-11T17:41:59.012Z,4.50
2018-02-11T17:44:25.105Z,4.50
2018-02-11T17:46:51.177Z,4.50
2018-02-11T17:49:18.006Z,4.40
2018-02-11T17:51:44.090Z,4.40
2018-02-11T17:54:10.161Z,4.40
2018-02-11T17:56:36.253Z,4.30
2018-02-11T17:59:02.405Z,4.30
2018-02-11T18:01:28.485Z,4.40
2018-02-11T18:03:54.557Z,4.50
2018-02-11T18:06:20.633Z,4.40
2018-02-11T18:08:46.730Z,4.40
2018-02-11T18:11:12.800Z,4.30
2018-02-11T18:13:38.878Z,4.30
2018-02-11T18:16:05.710Z,4.30
2018-02-11T18:18:32.536Z,4.40
2018-02-11T18:21:05.485Z,4.50
2018-02-11T18:23:31.553Z,4.50
2018-02-11T18:25:57.949Z,4.50
2018-02-11T18:28:24.041Z,4.60
2018-02-11T18:30:50.124Z,4.70
2018-02-11T18:33:16.208Z,4.80
2018-02-11T18:35:42.297Z,4.80
2018-02-11T18:38:08.365Z,4.80
2018-02-11T18:40:34.435Z,4.70
2018-02-11T18:43:00.509Z,4.60
2018-02-11T18:45:26.587Z,4.60
2018-02-11T18:47:53.433Z,4.60
2018-02-11T18:50:19.518Z,4.70
2018-02-11T18:52:45.594Z,4.80
2018-02-11T18:55:12.873Z,4.80
2018-02-11T18:57:39.169Z,4.80
2018-02-11T19:00:05.625Z,4.90
2018-02-11T19:02:31.709Z,4.80
2018-02-11T19:04:57.789Z,4.70
2018-02-11T19:07:23.873Z,4.70
2018-02-11T19:09:50.249Z,4.60
2018-02-11T19:12:16.378Z,4.60
2018-02-11T19:14:42.453Z,4.50
2018-02-11T19:17:08.560Z,4.40
2018-02-11T19:19:34.666Z,4.30
2018-02-11T19:22:00.763Z,4.30
2018-02-11T19:24:26.849Z,4.20
2018-02-11T19:26:53.410Z,4.20
2018-02-11T19:29:19.516Z,4.10
2018-02-11T19:31:45.618Z,4.10
2018-02-11T19:34:11.693Z,4.00
2018-02-11T19:36:38.579Z,4.00
2018-02-11T19:39:04.742Z,4.00
2018-02-11T19:41:30.822Z,4.00
2018-02-11T19:43:56.933Z,4.00
2018-02-11T19:46:23.006Z,3.90
2018-02-11T19:48:49.093Z,3.90
2018-02-11T19:51:15.852Z,3.80
2018-02-11T19:53:41.927Z,3.80
2018-02-11T19:56:08.225Z,3.80
2018-02-11T19:58:34.324Z,3.80
2018-02-11T20:01:00.605Z,3.80
2018-02-11T20:03:27.456Z,3.80
2018-02-11T20:05:53.545Z,3.70
2018-02-11T20:08:19.626Z,3.70
2018-02-11T20:10:45.704Z,3.70
2018-02-11T20:13:11.797Z,3.80
2018-02-11T20:15:38.115Z,3.80
2018-02-11T20:18:04.204Z,3.80
2018-02-11T20:20:31.345Z,3.80
2018-02-11T20:22:58.187Z,3.70
2018-02-11T20:25:24.281Z,3.70
2018-02-11T20:27:50.375Z,3.70
2018-02-11T20:30:18.261Z,3.60
2018-02-11T20:32:44.369Z,3.50
2018-02-11T20:35:15.189Z,3.50
2018-02-11T20:37:41.753Z,3.60
2018-02-11T20:40:07.831Z,3.40
2018-02-11T20:42:36.132Z,3.40
2018-02-11T20:45:02.285Z,3.40
2018-02-11T20:47:28.376Z,3.30
2018-02-11T20:49:55.057Z,3.50
2018-02-11T20:52:21.150Z,3.60
2018-02-11T20:54:47.621Z,3.60
2018-02-11T20:57:13.777Z,3.40
2018-02-11T20:59:40.608Z,3.30
2018-02-11T21:02:06.693Z,3.20
2018-02-11T21:04:32.772Z,3.20
2018-02-11T21:06:58.869Z,3.20
2018-02-11T21:09:24.962Z,3.20
2018-02-11T21:11:51.045Z,3.20
2018-02-11T21:14:17.153Z,3.20
2018-02-11T21:16:43.238Z,3.10
2018-02-11T21:19:09.313Z,3.10
2018-02-11T21:21:35.401Z,3.10
2018-02-11T21:24:01.507Z,3.10
2018-02-11T21:26:27.839Z,3.10
2018-02-11T21:28:53.918Z,3.20
2018-02-11T21:31:20.036Z,3.10
2018-02-11T21:33:46.128Z,3.00
2018-02-11T21:36:12.230Z,2.90
2018-02-11T21:38:38.310Z,2.90
2018-02-11T21:41:04.397Z,2.90
2018-02-11T21:43:30.542Z,3.00
2018-02-11T21:45:56.634Z,3.00
2018-02-11T21:48:22.737Z,3.00
2018-02-11T21:50:48.825Z,2.90
2018-02-11T21:53:14.973Z,3.00
2018-02-11T21:55:41.089Z,3.00
2018-02-11T21:58:07.166Z,3.00
2018-02-11T22:00:33.262Z,2.90
2018-02-11T22:02:59.384Z,2.80
2018-02-11T22:05:25.473Z,2.80
2018-02-11T22:07:51.561Z,2.90
2018-02-11T22:10:17.641Z,2.80
2018-02-11T22:12:50.773Z,2.70
2018-02-11T22:15:16.858Z,2.70
2018-02-11T22:17:42.989Z,2.70
2018-02-11T22:20:09.091Z,2.80
2018-02-11T22:22:35.229Z,2.70
2018-02-11T22:25:01.726Z,2.80
2018-02-11T22:27:27.842Z,2.80
2018-02-11T22:29:53.942Z,2.80
2018-02-11T22:32:20.049Z,2.70
2018-02-11T22:34:46.139Z,2.70
2018-02-11T22:37:12.218Z,2.60
2018-02-11T22:39:38.313Z,2.60
2018-02-11T22:42:04.409Z,2.70
2018-02-11T22:44:30.506Z,2.60
2018-02-11T22:46:57.323Z,2.60
2018-02-11T22:49:23.393Z,2.70
2018-02-11T22:51:49.489Z,2.70
2018-02-11T22:54:15.929Z,2.60
2018-02-11T22:56:42.749Z,2.70
2018-02-11T22:59:08.829Z,2.70
2018-02-11T23:01:34.915Z,2.70
2018-02-11T23:04:01.001Z,2.70
2018-02-11T23:06:27.093Z,2.70
2018-02-11T23:08:53.165Z,2.60
2018-02-11T23:11:19.345Z,2.50
2018-02-11T23:13:45.418Z,2.40
2018-02-11T23:16:11.502Z,2.50
2018-02-11T23:18:37.570Z,2.50
2018-02-11T23:21:03.645Z,2.50
2018-02-11T23:23:29.737Z,2.40
2018-02-11T23:25:55.816Z,2.40
2018-02-11T23:28:21.901Z,2.30
2018-02-11T23:30:48.725Z,2.30
2018-02-11T23:33:15.538Z,2.30
2018-02-11T23:35:41.632Z,2.30
2018-02-11T23:38:07.709Z,2.30
2018-02-11T23:40:33.777Z,2.40
2018-02-11T23:42:59.881Z,2.40
2018-02-11T23:45:26.719Z,2.40
2018-02-11T23:47:52.796Z,2.40
2018-02-11T23:50:18.885Z,2.40
2018-02-11T23:52:44.949Z,2.40
2018-02-11T23:55:11.038Z,2.40
2018-02-11T23:57:38.265Z,2.30
